Time;durP1;ratioP1;P1;durP2;ratioP2;P2;SDS_P1;SDS_P2;PMS_P1;PMS_P2;Temp;Humidity;BMP_temperature;BMP_pressure;BME280_temperature;BME280_humidity;BME280_pressure;Samples;Min_cycle;Max_cycle;Signal;HPM_P1;HPM_P2
2020/12/26 00:01:24;;;;;;;10.95;5.30;;;13.20;99.90;;;;;;5070076;28;20052;-65
2020/12/26 00:03:52;;;;;;;14.13;5.65;;;13.20;99.90;;;;;;5072596;28;20469;-64
2020/12/26 00:06:20;;;;;;;12.30;5.13;;;13.20;99.90;;;;;;5072514;28;20384;-63
2020/12/26 00:08:50;;;;;;;10.30;4.32;;;13.20;99.90;;;;;;5072353;28;20089;-64
2020/12/26 00:11:19;;;;;;;10.35;4.75;;;13.20;99.90;;;;;;5055138;28;20043;-63
2020/12/26 00:13:49;;;;;;;16.65;7.80;;;13.20;99.90;;;;;;5054434;28;20048;-63
2020/12/26 00:16:18;;;;;;;11.60;5.53;;;13.20;99.90;;;;;;5072916;28;20059;-63
2020/12/26 00:18:46;;;;;;;27.15;20.33;;;13.20;99.90;;;;;;5072140;28;20048;-62
2020/12/26 00:21:16;;;;;;;21.55;15.63;;;13.30;99.90;;;;;;5071123;28;20507;-63
2020/12/26 00:23:44;;;;;;;20.17;11.80;;;13.20;99.90;;;;;;5072580;28;20053;-64
2020/12/26 00:26:16;;;;;;;20.33;8.77;;;13.30;99.90;;;;;;5071581;28;20052;-63
2020/12/26 00:28:44;;;;;;;14.68;7.47;;;13.30;99.90;;;;;;5071975;28;20060;-62
2020/12/26 00:31:19;;;;;;;15.18;6.25;;;13.40;99.90;;;;;;5054819;28;20044;-64
2020/12/26 00:33:46;;;;;;;10.68;5.38;;;13.40;99.90;;;;;;5072375;28;20064;-62
2020/12/26 00:36:14;;;;;;;20.58;5.95;;;13.40;99.90;;;;;;5072683;28;20040;-63
2020/12/26 00:38:42;;;;;;;15.20;9.18;;;13.40;99.90;;;;;;5071999;28;20131;-64
2020/12/26 00:41:14;;;;;;;17.20;7.65;;;13.40;99.90;;;;;;5072411;28;20045;-63
2020/12/26 00:43:42;;;;;;;25.38;10.57;;;13.50;99.90;;;;;;5054667;28;20590;-64
2020/12/26 00:46:10;;;;;;;14.77;9.13;;;13.50;99.90;;;;;;5074486;28;20040;-63
2020/12/26 00:48:38;;;;;;;13.77;6.05;;;13.50;99.90;;;;;;5076253;28;20081;-64
2020/12/26 00:51:06;;;;;;;28.05;23.15;;;13.50;99.90;;;;;;5068147;28;20484;-64
2020/12/26 00:53:35;;;;;;;27.98;20.52;;;13.50;99.90;;;;;;5076479;28;20087;-64
2020/12/26 00:56:04;;;;;;;16.17;6.72;;;13.60;99.90;;;;;;5075124;28;20075;-63
2020/12/26 00:58:32;;;;;;;12.82;4.75;;;13.60;99.90;;;;;;5058255;28;20106;-64
2020/12/26 01:01:03;;;;;;;16.15;4.68;;;13.50;99.90;;;;;;5073879;28;20060;-62
2020/12/26 01:03:56;;;;;;;8.02;3.33;;;13.50;99.90;;;;;;5074998;28;20401;-62
2020/12/26 01:06:24;;;;;;;9.88;3.72;;;13.50;99.90;;;;;;5075171;28;20044;-63
2020/12/26 01:08:51;;;;;;;14.32;3.60;;;13.50;99.90;;;;;;5075618;28;20424;-64
2020/12/26 01:11:20;;;;;;;11.65;3.30;;;13.50;99.90;;;;;;5076040;28;20040;-62
2020/12/26 01:13:47;;;;;;;10.73;3.28;;;13.50;99.90;;;;;;5076069;28;20492;-63
2020/12/26 01:16:15;;;;;;;6.78;3.28;;;13.50;99.90;;;;;;5074572;28;20036;-63
2020/12/26 01:18:42;;;;;;;20.00;4.30;;;13.50;99.90;;;;;;5075687;28;20637;-59
2020/12/26 01:21:13;;;;;;;10.30;3.80;;;13.60;99.90;;;;;;5058372;28;20049;-63
2020/12/26 01:23:42;;;;;;;9.07;3.53;;;13.60;99.90;;;;;;5076262;28;20055;-64
2020/12/26 01:26:09;;;;;;;12.90;3.55;;;13.60;99.90;;;;;;5075712;28;20049;-63
2020/12/26 01:28:37;;;;;;;18.38;3.47;;;13.70;99.90;;;;;;5074215;28;20416;-62
2020/12/26 01:31:05;;;;;;;8.45;3.33;;;13.60;99.90;;;;;;5073914;28;20048;-63
2020/12/26 01:33:32;;;;;;;8.40;2.65;;;13.60;99.90;;;;;;5074593;28;20047;-64
2020/12/26 01:36:00;;;;;;;16.25;2.42;;;13.60;99.90;;;;;;5074212;28;20044;-63
2020/12/26 01:38:27;;;;;;;9.02;3.22;;;13.60;99.90;;;;;;5073989;28;20123;-63
2020/12/26 01:40:56;;;;;;;8.32;2.85;;;13.70;99.90;;;;;;5074460;28;20048;-63
2020/12/26 01:43:24;;;;;;;5.53;2.20;;;13.70;99.90;;;;;;5067432;28;20044;-63
2020/12/26 01:45:55;;;;;;;9.77;2.53;;;13.70;99.90;;;;;;5075533;28;20052;-61
2020/12/26 01:48:23;;;;;;;17.75;3.15;;;13.70;99.90;;;;;;5075364;28;20488;-62
2020/12/26 01:50:51;;;;;;;6.75;2.25;;;13.80;99.90;;;;;;5073956;28;20106;-62
2020/12/26 01:53:19;;;;;;;9.80;2.53;;;13.80;99.90;;;;;;5075275;28;20408;-62
2020/12/26 01:55:50;;;;;;;9.60;2.00;;;13.80;99.90;;;;;;5075890;28;20446;-63
2020/12/26 01:58:17;;;;;;;12.88;2.42;;;13.80;99.90;;;;;;5073216;28;20056;-63
2020/12/26 02:00:45;;;;;;;7.53;2.30;;;13.90;99.90;;;;;;5073851;28;20181;-63
2020/12/26 02:03:12;;;;;;;7.70;2.95;;;13.90;99.90;;;;;;5074114;28;20064;-63
2020/12/26 02:05:40;;;;;;;12.23;3.47;;;13.90;99.90;;;;;;5075254;28;20055;-63
2020/12/26 02:08:10;;;;;;;10.20;2.05;;;13.90;99.90;;;;;;5074984;28;20048;-63
2020/12/26 02:10:43;;;;;;;9.20;2.50;;;14.00;99.90;;;;;;5073440;28;20045;-63
2020/12/26 02:13:11;;;;;;;6.43;2.60;;;14.00;99.90;;;;;;5057253;28;20057;-62
2020/12/26 02:15:38;;;;;;;8.00;2.38;;;14.00;99.90;;;;;;5075057;28;20045;-63
2020/12/26 02:18:05;;;;;;;7.97;2.13;;;14.00;99.90;;;;;;5073781;28;20518;-63
2020/12/26 02:20:35;;;;;;;6.45;2.35;;;14.00;99.90;;;;;;5056690;28;20041;-63
2020/12/26 02:23:04;;;;;;;8.98;2.13;;;14.00;99.90;;;;;;5073292;28;20508;-62
2020/12/26 02:25:32;;;;;;;5.93;2.25;;;14.00;99.90;;;;;;5074660;28;20056;-64
2020/12/26 02:27:59;;;;;;;15.43;2.97;;;14.00;99.90;;;;;;5073168;28;20056;-63
2020/12/26 02:30:27;;;;;;;6.85;2.35;;;14.00;99.90;;;;;;5072986;28;20061;-64
2020/12/26 02:32:54;;;;;;;13.63;3.08;;;14.00;99.90;;;;;;5073816;28;20044;-63
2020/12/26 02:35:23;;;;;;;11.18;2.65;;;14.00;99.90;;;;;;5073370;28;20126;-63
2020/12/26 02:37:50;;;;;;;9.43;2.58;;;14.00;99.90;;;;;;5074566;28;20056;-63
2020/12/26 02:40:18;;;;;;;12.52;2.65;;;14.00;99.90;;;;;;5074191;28;20049;-64
2020/12/26 02:42:46;;;;;;;15.48;2.17;;;14.10;99.90;;;;;;5073325;28;20143;-62
2020/12/26 02:45:14;;;;;;;8.50;4.03;;;14.10;99.90;;;;;;5074558;28;20049;-63
2020/12/26 02:47:41;;;;;;;10.85;4.38;;;14.10;99.90;;;;;;5073017;28;20072;-63
2020/12/26 02:50:10;;;;;;;11.35;3.55;;;14.10;99.90;;;;;;5073697;28;20127;-63
2020/12/26 02:52:38;;;;;;;16.27;6.95;;;14.00;99.90;;;;;;5073979;28;20128;-62
2020/12/26 02:55:05;;;;;;;61.70;55.20;;;14.00;99.90;;;;;;5074305;28;20105;-63
2020/12/26 02:57:33;;;;;;;20.48;15.18;;;14.00;99.90;;;;;;5074125;28;20040;-63
2020/12/26 03:00:00;;;;;;;5.70;3.22;;;14.00;99.90;;;;;;5073655;28;20052;-61
2020/12/26 03:02:28;;;;;;;12.10;2.38;;;14.10;99.90;;;;;;5056293;28;20127;-62
2020/12/26 03:04:56;;;;;;;18.40;3.10;;;14.10;99.90;;;;;;5052830;28;20094;-62
2020/12/26 03:07:23;;;;;;;8.07;3.22;;;14.00;99.90;;;;;;5070561;28;20047;-63
2020/12/26 03:09:51;;;;;;;15.45;8.63;;;14.00;99.90;;;;;;5064474;28;20072;-63
2020/12/26 03:12:21;;;;;;;12.45;5.40;;;14.00;99.90;;;;;;5073949;28;20044;-62
2020/12/26 03:14:48;;;;;;;10.77;2.15;;;14.00;99.90;;;;;;5073796;28;20084;-63
2020/12/26 03:17:16;;;;;;;5.38;2.13;;;13.90;99.90;;;;;;5073690;28;20050;-64
2020/12/26 03:19:43;;;;;;;10.50;3.50;;;13.90;99.90;;;;;;5073137;28;20131;-62
2020/12/26 03:22:11;;;;;;;11.18;3.20;;;13.90;99.90;;;;;;5072503;28;20124;-63
2020/12/26 03:24:38;;;;;;;6.95;1.58;;;13.90;99.90;;;;;;5073476;28;20049;-63
2020/12/26 03:27:06;;;;;;;15.88;3.15;;;13.90;99.90;;;;;;5072552;28;20032;-63
2020/12/26 03:29:33;;;;;;;8.40;3.42;;;14.00;99.90;;;;;;5072707;28;20049;-64
2020/12/26 03:32:03;;;;;;;6.60;1.73;;;14.00;99.90;;;;;;5073524;28;20072;-62
2020/12/26 03:34:31;;;;;;;18.35;3.25;;;14.00;99.90;;;;;;5072241;28;20064;-63
2020/12/26 03:36:58;;;;;;;10.68;2.40;;;14.00;99.90;;;;;;5072898;28;20401;-63
2020/12/26 03:39:26;;;;;;;10.60;1.98;;;14.00;99.90;;;;;;5055223;28;20044;-62
2020/12/26 03:41:54;;;;;;;8.55;2.10;;;14.00;99.90;;;;;;5072003;28;20056;-63
2020/12/26 03:44:22;;;;;;;8.85;2.33;;;14.00;99.90;;;;;;5073365;28;20052;-62
2020/12/26 03:46:50;;;;;;;10.50;1.70;;;14.00;99.90;;;;;;5072908;28;20048;-61
2020/12/26 03:49:17;;;;;;;20.48;3.20;;;14.00;99.90;;;;;;5072707;28;20504;-63
2020/12/26 03:51:44;;;;;;;3.72;1.92;;;14.00;99.90;;;;;;5071765;28;20048;-63
2020/12/26 03:54:12;;;;;;;10.18;3.15;;;14.00;99.90;;;;;;5073135;28;20041;-63
2020/12/26 03:56:39;;;;;;;10.15;3.42;;;13.90;99.90;;;;;;5055678;28;20525;-64
2020/12/26 03:59:07;;;;;;;5.93;2.20;;;14.00;99.90;;;;;;5063371;28;20499;-64
2020/12/26 04:01:35;;;;;;;9.13;2.40;;;14.00;99.90;;;;;;5088233;28;20048;-63
2020/12/26 04:04:03;;;;;;;11.48;2.47;;;13.90;99.90;;;;;;5072801;28;20106;-63
2020/12/26 04:06:31;;;;;;;14.52;2.45;;;13.90;99.90;;;;;;5051853;28;20045;-63
2020/12/26 04:08:59;;;;;;;17.38;3.38;;;13.90;99.90;;;;;;5071026;28;20052;-63
2020/12/26 04:11:26;;;;;;;15.10;3.65;;;13.90;99.90;;;;;;5072659;28;20167;-63
2020/12/26 04:13:54;;;;;;;8.00;2.55;;;13.90;99.90;;;;;;5072752;28;20048;-63
2020/12/26 04:16:21;;;;;;;8.38;3.20;;;13.90;99.90;;;;;;5071699;28;20044;-62
2020/12/26 04:18:49;;;;;;;10.35;2.83;;;13.90;99.90;;;;;;5071102;28;20132;-65
2020/12/26 04:21:21;;;;;;;14.50;3.13;;;13.90;99.90;;;;;;5072106;28;20094;-64
2020/12/26 04:23:50;;;;;;;10.27;4.13;;;13.90;99.90;;;;;;5071457;28;20139;-64
2020/12/26 04:26:18;;;;;;;8.27;3.70;;;13.90;99.90;;;;;;5063847;28;20052;-62
2020/12/26 04:28:49;;;;;;;10.32;3.25;;;13.90;99.90;;;;;;5072189;28;20056;-61
2020/12/26 04:31:19;;;;;;;17.23;3.83;;;13.90;99.90;;;;;;5064640;28;20045;-62
2020/12/26 04:33:48;;;;;;;14.77;3.45;;;13.80;99.90;;;;;;5072602;28;20118;-63
2020/12/26 04:36:15;;;;;;;13.68;3.20;;;13.80;99.90;;;;;;5072529;28;20045;-62
2020/12/26 04:38:43;;;;;;;11.52;2.70;;;13.80;99.90;;;;;;5072219;28;20080;-63
2020/12/26 04:41:10;;;;;;;7.78;3.58;;;13.80;99.90;;;;;;5071998;28;20059;-64
2020/12/26 04:43:38;;;;;;;16.55;4.60;;;13.80;99.90;;;;;;5072307;28;20060;-63
2020/12/26 04:46:17;;;;;;;8.93;2.22;;;13.80;99.90;;;;;;5070997;28;20147;-62
2020/12/26 04:49:06;;;;;;;9.63;2.42;;;13.80;99.90;;;;;;5072293;28;20122;-63
2020/12/26 04:51:36;;;;;;;14.60;3.28;;;13.80;99.90;;;;;;5072292;28;20045;-62
2020/12/26 04:54:08;;;;;;;10.32;3.70;;;13.80;99.90;;;;;;5071168;28;20048;-63
2020/12/26 04:56:44;;;;;;;9.68;3.42;;;13.80;99.90;;;;;;5055119;28;20044;-63
2020/12/26 04:59:13;;;;;;;11.38;3.95;;;13.80;99.90;;;;;;5054092;28;20238;-63
2020/12/26 05:01:41;;;;;;;8.63;3.50;;;13.80;99.90;;;;;;5071087;28;20129;-63
2020/12/26 05:04:10;;;;;;;13.95;3.20;;;13.80;99.90;;;;;;5054511;28;20056;-61
2020/12/26 05:06:47;;;;;;;6.97;2.88;;;13.80;99.90;;;;;;5071411;28;20052;-63
2020/12/26 05:09:16;;;;;;;10.43;3.58;;;13.90;99.90;;;;;;5070777;28;20056;-62
2020/12/26 05:12:00;;;;;;;7.88;3.42;;;13.90;99.90;;;;;;5072123;28;20135;-64
2020/12/26 05:14:31;;;;;;;7.40;2.70;;;13.90;99.90;;;;;;5072407;28;20048;-63
2020/12/26 05:17:00;;;;;;;10.57;3.13;;;13.90;99.90;;;;;;5072272;28;20132;-63
2020/12/26 05:19:28;;;;;;;12.15;4.05;;;13.90;99.90;;;;;;5070306;28;20496;-62
2020/12/26 05:21:57;;;;;;;7.75;3.22;;;13.90;99.90;;;;;;5070950;28;20060;-64
2020/12/26 05:24:24;;;;;;;14.70;4.13;;;14.00;99.90;;;;;;5072045;28;20056;-63
2020/12/26 05:26:53;;;;;;;9.52;2.70;;;14.00;99.90;;;;;;5054501;28;20059;-64
2020/12/26 05:29:22;;;;;;;11.98;4.30;;;14.00;99.90;;;;;;5071414;28;20084;-61
2020/12/26 05:31:58;;;;;;;9.27;3.30;;;14.00;99.90;;;;;;5055053;28;20048;-64
2020/12/26 05:34:45;;;;;;;10.00;3.70;;;14.00;99.90;;;;;;5074717;28;20127;-63
2020/12/26 05:37:15;;;;;;;10.30;3.05;;;14.00;99.90;;;;;;5074421;28;20048;-64
2020/12/26 05:39:42;;;;;;;7.20;4.63;;;14.00;99.90;;;;;;5075172;28;20052;-64
2020/12/26 05:42:18;;;;;;;15.18;3.13;;;14.00;99.90;;;;;;5058054;28;20147;-63
2020/12/26 05:44:46;;;;;;;14.05;5.40;;;14.00;99.90;;;;;;5074520;28;20048;-63
2020/12/26 05:47:14;;;;;;;11.45;4.47;;;14.10;99.90;;;;;;5075536;28;20052;-65
2020/12/26 05:49:41;;;;;;;12.35;4.13;;;14.00;99.90;;;;;;5075070;28;20169;-63
2020/12/26 05:52:13;;;;;;;15.55;5.35;;;14.10;99.90;;;;;;5075399;28;20499;-62
2020/12/26 05:54:51;;;;;;;9.63;3.28;;;14.10;99.90;;;;;;5074095;28;20060;-63
2020/12/26 05:57:20;;;;;;;9.20;3.25;;;14.10;99.90;;;;;;5074355;28;20444;-64
2020/12/26 05:59:54;;;;;;;30.80;4.22;;;14.10;99.90;;;;;;5073704;28;20049;-64
2020/12/26 06:02:29;;;;;;;12.68;3.95;;;14.10;99.90;;;;;;5074987;28;20048;-63
2020/12/26 06:05:02;;;;;;;7.47;3.55;;;14.10;99.90;;;;;;5075377;28;20056;-63
2020/12/26 06:07:35;;;;;;;8.27;3.33;;;14.10;99.90;;;;;;5075063;28;20053;-64
2020/12/26 06:10:09;;;;;;;7.95;3.15;;;14.10;99.90;;;;;;5073537;28;20135;-64
2020/12/26 06:12:37;;;;;;;11.68;3.88;;;14.10;99.90;;;;;;5055725;28;20124;-61
2020/12/26 06:15:05;;;;;;;7.40;3.03;;;14.10;99.90;;;;;;5074794;28;20097;-63
2020/12/26 06:17:34;;;;;;;12.77;4.55;;;14.10;99.90;;;;;;5073873;28;20060;-64
2020/12/26 06:20:06;;;;;;;9.18;3.70;;;14.10;99.90;;;;;;5074786;28;20044;-64
2020/12/26 06:22:45;;;;;;;12.38;2.78;;;14.10;99.90;;;;;;5073576;28;20053;-62
2020/12/26 06:25:16;;;;;;;11.05;3.58;;;14.10;99.90;;;;;;5073761;28;20145;-61
2020/12/26 06:27:58;;;;;;;11.25;3.40;;;14.10;99.90;;;;;;5074504;28;20057;-62
2020/12/26 06:30:26;;;;;;;15.38;3.90;;;14.10;99.90;;;;;;5074254;28;20408;-63
2020/12/26 06:32:56;;;;;;;12.10;3.67;;;14.10;99.90;;;;;;5065454;28;20032;-63
2020/12/26 06:35:24;;;;;;;6.78;2.97;;;14.10;99.90;;;;;;5074759;28;20567;-63
2020/12/26 06:38:10;;;;;;;8.48;3.53;;;14.10;99.90;;;;;;5073232;28;20094;-63
2020/12/26 06:40:48;;;;;;;14.85;2.88;;;14.20;99.90;;;;;;5073950;28;20125;-62
2020/12/26 06:43:44;;;;;;;7.18;2.10;;;14.20;99.90;;;;;;5074429;28;20052;-63
2020/12/26 06:46:21;;;;;;;11.25;2.85;;;14.20;99.90;;;;;;5074542;28;20412;-64
2020/12/26 06:48:50;;;;;;;9.15;2.90;;;14.20;99.90;;;;;;5073396;28;20059;-63
2020/12/26 06:51:27;;;;;;;14.40;4.13;;;14.20;99.90;;;;;;5073156;28;20044;-63
2020/12/26 06:53:57;;;;;;;11.75;3.38;;;14.30;99.90;;;;;;5074103;28;20458;-62
2020/12/26 06:56:34;;;;;;;12.48;3.65;;;14.30;99.90;;;;;;5073162;28;20040;-63
2020/12/26 06:59:06;;;;;;;12.55;2.45;;;14.30;99.90;;;;;;5072599;28;20045;-63
2020/12/26 07:01:36;;;;;;;6.40;3.05;;;14.30;99.90;;;;;;5072988;28;20044;-64
2020/12/26 07:04:21;;;;;;;15.98;3.42;;;14.30;99.90;;;;;;5066101;28;20068;-63
2020/12/26 07:06:49;;;;;;;8.93;2.85;;;14.40;99.90;;;;;;5074156;28;20060;-63
2020/12/26 07:09:20;;;;;;;9.68;2.78;;;14.40;99.90;;;;;;5073548;28;20060;-63
2020/12/26 07:11:53;;;;;;;11.65;4.07;;;14.40;99.90;;;;;;5072717;28;20131;-64
2020/12/26 07:14:34;;;;;;;10.98;2.40;;;14.50;99.90;;;;;;5074006;28;20480;-63
2020/12/26 07:17:29;;;;;;;19.65;8.73;;;14.50;99.90;;;;;;5073631;28;20530;-63
2020/12/26 07:19:59;;;;;;;17.05;6.90;;;14.50;99.90;;;;;;5071991;28;20059;-64
2020/12/26 07:22:32;;;;;;;9.95;3.40;;;14.60;99.90;;;;;;5072580;28;20051;-64
2020/12/26 07:25:07;;;;;;;10.75;2.80;;;14.60;99.90;;;;;;5072417;27;20520;-63
2020/12/26 07:27:39;;;;;;;7.07;3.43;;;14.70;99.90;;;;;;5072569;28;20052;-64
2020/12/26 07:30:06;;;;;;;10.00;2.92;;;14.70;99.90;;;;;;5071573;28;20530;-64
2020/12/26 07:32:40;;;;;;;7.85;2.63;;;14.70;99.90;;;;;;5072295;28;20124;-63
2020/12/26 07:35:16;;;;;;;10.73;3.08;;;14.80;99.90;;;;;;5073249;28;20056;-63
2020/12/26 07:37:57;;;;;;;9.15;2.78;;;14.80;99.90;;;;;;5073503;28;20052;-63
2020/12/26 07:40:38;;;;;;;7.45;2.80;;;14.90;99.90;;;;;;5072999;28;20036;-63
2020/12/26 07:43:11;;;;;;;8.40;3.03;;;14.90;99.90;;;;;;5073167;28;20424;-64
2020/12/26 07:45:41;;;;;;;9.32;2.15;;;15.00;99.90;;;;;;5073356;28;20090;-63
2020/12/26 07:48:09;;;;;;;11.88;2.70;;;15.00;99.90;;;;;;5072954;28;20047;-63
2020/12/26 07:50:41;;;;;;;13.75;3.67;;;15.10;99.90;;;;;;5071461;28;20579;-64
2020/12/26 07:53:12;;;;;;;6.82;2.38;;;15.10;99.90;;;;;;5073036;28;20052;-64
2020/12/26 07:55:40;;;;;;;15.93;3.55;;;15.20;99.90;;;;;;5072622;28;20140;-63
2020/12/26 07:58:12;;;;;;;6.70;1.88;;;15.20;99.90;;;;;;5072814;28;20530;-64
2020/12/26 08:00:41;;;;;;;5.63;2.50;;;15.30;99.90;;;;;;5071449;28;20068;-64
2020/12/26 08:03:14;;;;;;;9.93;2.53;;;15.30;99.90;;;;;;5073155;28;20053;-64
2020/12/26 08:05:47;;;;;;;9.65;2.20;;;15.40;99.90;;;;;;5072938;28;20059;-63
2020/12/26 08:08:21;;;;;;;14.18;4.78;;;15.40;99.90;;;;;;5072898;28;20132;-63
2020/12/26 08:10:56;;;;;;;11.98;2.28;;;15.50;99.90;;;;;;5071892;28;20049;-63
2020/12/26 08:13:24;;;;;;;15.02;3.58;;;15.60;99.90;;;;;;5071543;28;20047;-63
2020/12/26 08:16:02;;;;;;;12.38;3.55;;;15.60;99.90;;;;;;5071990;28;20067;-63
2020/12/26 08:18:31;;;;;;;11.05;3.53;;;15.70;99.90;;;;;;5072420;28;20040;-64
2020/12/26 08:20:59;;;;;;;10.23;2.10;;;15.80;99.90;;;;;;5072738;28;20071;-64
2020/12/26 08:23:28;;;;;;;17.60;3.15;;;15.80;99.90;;;;;;5063387;28;20067;-63
2020/12/26 08:26:01;;;;;;;14.55;3.50;;;15.80;99.90;;;;;;5055133;28;20113;-63
2020/12/26 08:28:30;;;;;;;33.75;14.00;;;15.80;99.90;;;;;;5064182;28;20064;-64
2020/12/26 08:31:03;;;;;;;103.25;43.25;;;15.80;99.90;;;;;;5072635;28;20076;-63
2020/12/26 08:33:47;;;;;;;20.88;9.98;;;15.90;99.90;;;;;;5064955;28;20515;-63
2020/12/26 08:36:37;;;;;;;12.10;3.60;;;15.90;99.90;;;;;;5072480;28;20051;-63
2020/12/26 08:39:07;;;;;;;10.10;4.97;;;16.00;99.90;;;;;;5071469;28;20052;-63
2020/12/26 08:41:41;;;;;;;30.40;5.10;;;16.10;99.90;;;;;;5063708;28;20695;-63
2020/12/26 08:44:10;;;;;;;14.98;3.35;;;16.10;99.90;;;;;;5071408;28;20098;-64
2020/12/26 08:46:48;;;;;;;10.68;3.63;;;16.10;99.90;;;;;;5064727;28;20102;-63
2020/12/26 08:49:16;;;;;;;13.13;3.42;;;16.10;99.90;;;;;;5070729;27;20056;-64
2020/12/26 08:51:44;;;;;;;15.07;3.85;;;16.10;99.90;;;;;;5054684;28;20060;-64
2020/12/26 08:54:17;;;;;;;11.52;3.67;;;16.20;99.90;;;;;;5056612;28;20049;-64
2020/12/26 08:56:46;;;;;;;15.75;3.17;;;16.30;99.90;;;;;;5062544;28;20049;-63
2020/12/26 08:59:13;;;;;;;10.90;3.50;;;16.30;99.90;;;;;;5049944;28;20052;-64
2020/12/26 09:01:41;;;;;;;17.40;5.68;;;16.20;99.90;;;;;;5063391;27;20051;-63
2020/12/26 09:04:16;;;;;;;24.02;8.07;;;16.20;99.90;;;;;;5072189;28;20052;-63
2020/12/26 09:06:44;;;;;;;14.23;4.95;;;16.20;99.90;;;;;;5055295;28;20407;-64
2020/12/26 09:09:18;;;;;;;12.55;3.88;;;16.20;99.90;;;;;;5074546;28;20495;-63
2020/12/26 09:11:47;;;;;;;16.35;5.70;;;16.30;99.90;;;;;;5075804;28;20182;-64
2020/12/26 09:14:23;;;;;;;14.07;6.53;;;16.20;99.90;;;;;;5076254;28;20053;-63
2020/12/26 09:16:59;;;;;;;24.80;5.40;;;16.20;99.90;;;;;;5074125;28;20044;-63
2020/12/26 09:19:40;;;;;;;26.80;10.00;;;16.20;99.90;;;;;;5075514;28;20060;-64
2020/12/26 09:22:09;;;;;;;14.68;6.57;;;16.30;99.90;;;;;;5075073;28;20052;-64
2020/12/26 09:24:36;;;;;;;12.02;5.82;;;16.40;99.90;;;;;;5074712;28;20052;-64
2020/12/26 09:27:04;;;;;;;24.63;10.98;;;16.50;99.90;;;;;;5074469;28;20044;-63
2020/12/26 09:29:32;;;;;;;34.88;18.20;;;16.50;99.90;;;;;;5074982;28;20087;-64
2020/12/26 09:32:07;;;;;;;10.57;5.95;;;16.50;99.90;;;;;;5075580;28;20044;-63
2020/12/26 09:34:36;;;;;;;17.95;5.80;;;16.50;99.90;;;;;;5074525;28;20404;-63
2020/12/26 09:37:06;;;;;;;14.93;6.32;;;16.60;99.90;;;;;;5074146;28;20127;-64
2020/12/26 09:39:35;;;;;;;12.82;4.88;;;16.60;99.90;;;;;;5054869;28;20049;-63
2020/12/26 09:42:03;;;;;;;10.93;3.80;;;16.70;99.90;;;;;;5074433;28;20047;-64
2020/12/26 09:44:31;;;;;;;16.25;4.22;;;16.70;99.90;;;;;;5075341;28;20076;-64
2020/12/26 09:47:04;;;;;;;15.13;7.50;;;16.80;99.90;;;;;;5074616;27;20109;-63
2020/12/26 09:49:32;;;;;;;11.40;5.35;;;17.00;99.90;;;;;;5073235;28;20048;-64
2020/12/26 09:51:59;;;;;;;14.10;3.85;;;16.90;99.90;;;;;;5074387;28;20115;-63
2020/12/26 09:54:27;;;;;;;11.95;4.57;;;17.00;99.90;;;;;;5074459;28;20051;-63
2020/12/26 09:56:55;;;;;;;15.35;5.70;;;17.00;99.90;;;;;;5073781;27;20458;-63
2020/12/26 09:59:22;;;;;;;9.90;4.93;;;17.10;99.90;;;;;;5036761;28;20041;-64
2020/12/26 10:01:50;;;;;;;12.10;4.57;;;17.00;99.90;;;;;;5073458;28;20053;-64
2020/12/26 10:04:18;;;;;;;9.70;3.95;;;17.10;99.90;;;;;;5075045;28;20083;-68
2020/12/26 10:06:46;;;;;;;13.32;4.13;;;17.00;99.90;;;;;;5073895;27;20056;-64
2020/12/26 10:09:14;;;;;;;20.65;5.30;;;17.10;99.90;;;;;;5073107;28;20072;-63
2020/12/26 10:11:41;;;;;;;15.35;4.25;;;17.10;99.90;;;;;;5073911;28;20114;-65
2020/12/26 10:14:09;;;;;;;14.18;4.85;;;17.20;99.90;;;;;;5066700;28;20389;-64
2020/12/26 10:16:37;;;;;;;14.38;4.57;;;17.20;99.90;;;;;;5073840;28;20598;-64
2020/12/26 10:19:05;;;;;;;13.05;4.80;;;17.20;99.90;;;;;;5072544;28;20463;-63
2020/12/26 10:21:33;;;;;;;9.27;4.88;;;17.30;99.90;;;;;;5057414;28;20458;-64
2020/12/26 10:24:01;;;;;;;10.70;4.10;;;17.30;99.90;;;;;;5074579;28;20074;-64
2020/12/26 10:26:28;;;;;;;12.32;4.88;;;17.30;99.90;;;;;;5073683;28;20052;-64
2020/12/26 10:28:56;;;;;;;10.63;3.35;;;17.20;99.90;;;;;;5074059;28;20139;-64
2020/12/26 10:31:29;;;;;;;14.75;4.53;;;17.20;99.90;;;;;;5073065;28;20393;-63
2020/12/26 10:33:57;;;;;;;10.20;4.30;;;17.20;99.90;;;;;;5057119;28;20044;-63
2020/12/26 10:36:25;;;;;;;14.13;5.72;;;17.30;99.90;;;;;;5073407;28;20131;-64
2020/12/26 10:38:52;;;;;;;12.88;3.97;;;17.40;99.90;;;;;;5074176;28;20045;-64
2020/12/26 10:41:21;;;;;;;19.85;5.60;;;17.40;99.90;;;;;;5074562;28;20040;-63
2020/12/26 10:43:48;;;;;;;12.27;4.85;;;17.40;99.90;;;;;;5074130;28;20098;-64
2020/12/26 10:46:16;;;;;;;16.30;5.20;;;17.30;99.90;;;;;;5074724;28;20181;-64
2020/12/26 10:48:43;;;;;;;9.65;4.57;;;17.20;99.90;;;;;;5074149;28;20063;-63
2020/12/26 10:51:11;;;;;;;14.32;4.32;;;17.10;99.90;;;;;;5072339;28;20041;-63
2020/12/26 10:53:38;;;;;;;11.00;4.65;;;17.10;99.90;;;;;;5074214;28;20049;-63
2020/12/26 10:56:07;;;;;;;11.07;4.78;;;17.00;99.90;;;;;;5072909;28;20106;-61
2020/12/26 10:58:35;;;;;;;15.40;3.85;;;17.10;99.90;;;;;;5073325;28;20098;-63
2020/12/26 11:01:02;;;;;;;9.13;4.32;;;17.20;99.90;;;;;;5053750;28;20493;-63
2020/12/26 11:03:30;;;;;;;18.42;4.88;;;17.30;99.90;;;;;;5073361;28;20401;-63
2020/12/26 11:05:59;;;;;;;15.57;4.82;;;17.40;99.90;;;;;;5055444;28;20056;-63
2020/12/26 11:08:27;;;;;;;15.02;5.38;;;17.50;99.90;;;;;;5072540;28;20047;-62
2020/12/26 11:10:55;;;;;;;15.48;4.70;;;17.50;99.90;;;;;;5072640;28;20058;-63
2020/12/26 11:13:22;;;;;;;15.35;5.70;;;17.70;99.90;;;;;;5073745;28;20191;-62
2020/12/26 11:15:50;;;;;;;7.40;3.50;;;17.80;99.90;;;;;;5073934;28;20055;-63
2020/12/26 11:18:17;;;;;;;14.77;4.38;;;17.70;99.90;;;;;;5073593;28;20059;-64
2020/12/26 11:20:46;;;;;;;12.85;5.15;;;17.60;99.90;;;;;;5073771;28;20127;-64
2020/12/26 11:23:16;;;;;;;12.23;3.40;;;17.50;99.90;;;;;;5073555;28;20102;-63
2020/12/26 11:25:43;;;;;;;8.38;3.58;;;17.40;99.90;;;;;;5073674;28;20054;-64
2020/12/26 11:28:11;;;;;;;13.93;4.13;;;17.30;99.90;;;;;;5073265;28;20590;-63
2020/12/26 11:30:40;;;;;;;13.73;4.55;;;17.30;99.90;;;;;;5054586;28;20040;-64
2020/12/26 11:33:07;;;;;;;18.80;4.22;;;17.30;99.90;;;;;;5072230;28;20045;-64
2020/12/26 11:35:35;;;;;;;15.82;5.15;;;17.30;99.90;;;;;;5065649;28;20044;-63
2020/12/26 11:38:03;;;;;;;13.88;5.35;;;17.20;99.90;;;;;;5073522;28;20050;-63
2020/12/26 11:40:30;;;;;;;17.58;4.68;;;17.20;99.90;;;;;;5072788;28;20072;-64
2020/12/26 11:42:58;;;;;;;12.35;4.57;;;17.20;99.90;;;;;;5072221;28;20614;-64
2020/12/26 11:45:25;;;;;;;12.23;3.95;;;17.20;99.90;;;;;;5055532;28;20052;-63
2020/12/26 11:47:53;;;;;;;10.27;4.03;;;17.40;99.90;;;;;;5073203;28;20048;-64
2020/12/26 11:50:20;;;;;;;9.82;4.63;;;17.40;99.90;;;;;;5071191;28;20464;-64
2020/12/26 11:52:48;;;;;;;12.95;4.30;;;17.40;99.90;;;;;;5071946;28;20049;-65
2020/12/26 11:55:16;;;;;;;17.92;4.70;;;17.30;99.90;;;;;;5072684;28;20048;-64
2020/12/26 11:57:44;;;;;;;16.77;4.82;;;17.30;99.90;;;;;;5054114;28;20086;-61
2020/12/26 12:00:12;;;;;;;12.52;5.72;;;17.30;99.90;;;;;;5072648;28;20049;-63
2020/12/26 12:02:39;;;;;;;11.43;5.38;;;17.30;99.90;;;;;;5070561;28;20045;-63
2020/12/26 12:05:07;;;;;;;14.50;6.30;;;17.30;99.90;;;;;;5035566;28;20552;-63
2020/12/26 12:07:35;;;;;;;18.50;6.25;;;17.30;99.90;;;;;;5071755;28;20053;-63
2020/12/26 12:10:04;;;;;;;10.40;4.65;;;17.20;99.90;;;;;;5071351;28;20068;-63
2020/12/26 12:12:32;;;;;;;26.98;6.53;;;17.10;99.90;;;;;;5072452;28;20036;-64
2020/12/26 12:15:00;;;;;;;16.30;5.72;;;17.00;99.90;;;;;;5072847;28;20513;-64
2020/12/26 12:17:28;;;;;;;19.10;7.25;;;16.90;99.90;;;;;;5071531;28;20056;-63
2020/12/26 12:19:56;;;;;;;12.68;7.05;;;17.00;99.90;;;;;;5072170;28;20041;-63
2020/12/26 12:22:24;;;;;;;14.77;6.43;;;17.00;99.90;;;;;;5072446;28;20048;-64
2020/12/26 12:24:52;;;;;;;12.98;5.85;;;17.00;99.90;;;;;;5072858;28;20511;-63
2020/12/26 12:27:19;;;;;;;7.95;4.95;;;17.00;99.90;;;;;;5072559;28;20044;-64
2020/12/26 12:29:47;;;;;;;7.85;5.43;;;17.00;99.90;;;;;;5072137;28;20090;-63
2020/12/26 12:32:15;;;;;;;15.85;4.55;;;17.00;99.90;;;;;;5071360;28;20507;-63
2020/12/26 12:34:43;;;;;;;16.10;5.85;;;16.80;99.90;;;;;;5072394;28;20072;-63
2020/12/26 12:37:13;;;;;;;14.13;5.85;;;16.90;99.90;;;;;;5072195;28;20124;-64
2020/12/26 12:39:40;;;;;;;14.68;4.35;;;16.90;99.90;;;;;;5070603;28;20051;-63
2020/12/26 12:42:08;;;;;;;16.98;7.32;;;16.80;99.90;;;;;;5072402;28;20052;-63
2020/12/26 12:44:37;;;;;;;17.55;6.45;;;16.90;99.90;;;;;;5072426;28;20050;-63
2020/12/26 12:47:05;;;;;;;15.60;6.22;;;16.80;99.90;;;;;;5072428;28;20420;-63
2020/12/26 12:49:32;;;;;;;18.80;8.32;;;16.70;99.90;;;;;;5071801;28;20415;-65
2020/12/26 12:52:04;;;;;;;17.90;8.75;;;16.80;99.90;;;;;;5071346;28;20040;-63